Terminal Aerodrome Forecast
Issued by NWS

Home | Current Version | Previous Version | Text Only | Print | Product List | Glossary On
Versions: 1 2 3 4 5 6 7 8 9 10 11 12 13 14 15
000
FTUS42 KTAE 011100
TAFABY
TAF
KABY 011134Z 0112/0212 04008KT 4SM -SHRA BR OVC005
     FM011600 05004KT P6SM OVC009
     FM020300 00000KT 4SM BR OVC006
     FM020800 00000KT 1SM BR OVC003=

USA.gov is the U.S. government's official web portal to all federal, state and local government web resources and services.